createdAt,value
2023-09-09T00:07:22.834Z,80.90
2023-09-09T00:10:15.907Z,81.84
2023-09-09T00:13:19.900Z,83.66
2023-09-09T00:16:14.698Z,84.25
2023-09-09T00:26:06.132Z,80.76
2023-09-09T00:29:06.169Z,80.02
2023-09-09T00:31:36.066Z,81.19
2023-09-09T00:34:04.728Z,82.60
2023-09-09T00:36:53.485Z,81.38
2023-09-09T00:39:30.995Z,82.81
2023-09-09T00:42:29.532Z,83.82
2023-09-09T00:45:23.225Z,84.51
2023-09-09T00:54:15.595Z,82.73
2023-09-09T00:59:55.152Z,77.90
2023-09-09T01:05:28.905Z,83.14
2023-09-09T01:08:00.967Z,83.44
2023-09-09T01:10:41.727Z,80.24
2023-09-09T01:13:23.180Z,80.32
2023-09-09T01:15:56.154Z,80.68
2023-09-09T01:24:42.447Z,78.37
2023-09-09T01:27:23.585Z,78.55
2023-09-09T01:30:15.428Z,80.60
2023-09-09T01:32:46.389Z,79.68
2023-09-09T01:35:45.377Z,81.86
2023-09-09T01:38:36.948Z,80.76
2023-09-09T01:41:10.158Z,81.75
2023-09-09T01:43:41.158Z,80.80
2023-09-09T01:46:11.514Z,81.66
2023-09-09T01:48:59.186Z,81.94
2023-09-09T01:51:29.996Z,83.74
2023-09-09T01:54:05.191Z,84.58
2023-09-09T01:56:36.479Z,86.14
2023-09-09T01:59:06.140Z,85.42
2023-09-09T02:01:37.836Z,84.86
2023-09-09T02:04:10.498Z,83.95
2023-09-09T02:06:39.557Z,83.30
2023-09-09T02:09:08.644Z,85.32
2023-09-09T02:11:40.356Z,86.97
2023-09-09T02:14:10.309Z,88.82
2023-09-09T02:16:41.377Z,89.66
2023-09-09T02:19:11.961Z,89.84
2023-09-09T02:21:43.945Z,87.08
2023-09-09T02:24:15.950Z,85.13
2023-09-09T02:26:46.054Z,87.51
2023-09-09T02:29:16.434Z,87.49
2023-09-09T02:31:46.088Z,87.83
2023-09-09T02:34:16.209Z,86.67
2023-09-09T02:37:06.615Z,85.64
2023-09-09T02:39:40.319Z,84.86
2023-09-09T02:42:13.457Z,84.39
2023-09-09T02:44:44.622Z,83.99
2023-09-09T02:47:14.584Z,85.11
2023-09-09T02:49:45.891Z,85.56
2023-09-09T02:52:19.337Z,85.24
2023-09-09T02:54:48.852Z,85.46
2023-09-09T02:57:19.025Z,85.50
2023-09-09T02:59:48.524Z,84.89
2023-09-09T03:02:20.797Z,84.21
2023-09-09T03:04:50.269Z,85.59
2023-09-09T03:07:21.289Z,88.72
2023-09-09T03:09:50.887Z,89.06
2023-09-09T03:12:22.451Z,88.16
2023-09-09T03:14:52.113Z,87.20
2023-09-09T03:17:21.727Z,85.76
2023-09-09T03:19:51.097Z,84.55
2023-09-09T03:22:21.261Z,87.69
2023-09-09T03:24:50.336Z,88.22
2023-09-09T03:27:22.747Z,88.37
2023-09-09T03:29:52.863Z,89.24
2023-09-09T03:32:21.992Z,88.74
2023-09-09T03:34:51.495Z,89.29
2023-09-09T03:37:23.091Z,89.58
2023-09-09T03:39:53.582Z,91.52
2023-09-09T03:42:22.778Z,90.93
2023-09-09T03:44:55.369Z,89.74
2023-09-09T03:47:24.425Z,88.65
2023-09-09T03:49:57.925Z,88.87
2023-09-09T03:52:26.919Z,88.19
2023-09-09T03:54:56.595Z,89.40
2023-09-09T03:57:26.520Z,88.44
2023-09-09T03:59:55.915Z,87.28
2023-09-09T04:02:26.211Z,86.73
2023-09-09T04:04:56.541Z,86.68
2023-09-09T04:07:27.202Z,85.81
2023-09-09T04:09:57.011Z,87.17
2023-09-09T04:12:26.562Z,87.54
2023-09-09T04:14:57.698Z,87.55
2023-09-09T04:17:27.674Z,88.28
2023-09-09T04:19:58.471Z,88.53
2023-09-09T04:22:28.789Z,87.62
2023-09-09T04:24:58.223Z,87.10
2023-09-09T04:27:28.341Z,87.93
2023-09-09T04:29:57.035Z,88.79
2023-09-09T04:32:27.063Z,88.36
2023-09-09T04:34:58.932Z,88.30
2023-09-09T04:37:31.265Z,87.14
2023-09-09T04:40:06.469Z,87.35
2023-09-09T04:42:36.262Z,86.13
2023-09-09T04:45:06.498Z,85.40
2023-09-09T04:47:36.039Z,85.15
2023-09-09T04:50:06.194Z,84.97
2023-09-09T04:52:35.707Z,84.36
2023-09-09T04:55:06.355Z,83.22
2023-09-09T04:57:35.659Z,82.55
2023-09-09T05:00:08.391Z,82.77
2023-09-09T05:02:45.254Z,83.17
2023-09-09T05:05:15.900Z,85.37
2023-09-09T05:07:45.193Z,86.25
2023-09-09T05:10:17.973Z,85.95
2023-09-09T05:12:47.650Z,86.14
2023-09-09T05:15:18.301Z,86.45
2023-09-09T05:17:51.845Z,85.40
2023-09-09T05:20:21.362Z,83.22
2023-09-09T05:22:51.321Z,83.04
2023-09-09T05:28:03.979Z,82.29
2023-09-09T05:30:33.782Z,82.25
2023-09-09T05:33:03.595Z,81.11
2023-09-09T05:35:43.404Z,80.00
2023-09-09T05:38:17.900Z,78.97
2023-09-09T05:46:56.034Z,80.35
2023-09-09T06:20:38.661Z,75.80
2023-09-09T06:27:59.089Z,74.52
2023-09-09T06:31:20.342Z,70.50
2023-09-09T06:37:56.980Z,69.57
2023-09-09T06:40:41.382Z,70.06
2023-09-09T06:43:24.875Z,69.83
2023-09-09T06:46:02.062Z,67.86
2023-09-09T06:48:31.793Z,67.58
2023-09-09T06:51:01.735Z,67.39
2023-09-09T06:53:30.397Z,65.07
2023-09-09T06:55:58.999Z,63.47
2023-09-09T06:58:27.650Z,63.67
2023-09-09T07:00:56.268Z,62.74
2023-09-09T07:03:24.975Z,61.49
2023-09-09T07:05:53.656Z,61.94
2023-09-09T07:08:22.289Z,61.13
2023-09-09T07:10:54.589Z,61.73
2023-09-09T07:13:24.100Z,60.80
2023-09-09T07:15:56.373Z,59.64
2023-09-09T07:18:27.085Z,60.14
2023-09-09T07:20:58.893Z,59.60
2023-09-09T07:23:27.667Z,58.93
2023-09-09T07:25:56.518Z,57.44
2023-09-09T07:28:25.908Z,58.01
2023-09-09T07:30:54.725Z,57.25
2023-09-09T07:33:23.686Z,55.69
2023-09-09T07:35:54.257Z,55.19
2023-09-09T07:38:23.164Z,55.23
2023-09-09T07:41:02.895Z,54.03
2023-09-09T07:43:31.490Z,54.58
2023-09-09T07:46:00.047Z,55.02
2023-09-09T07:48:29.381Z,54.55
2023-09-09T07:51:00.742Z,53.28
2023-09-09T07:53:29.369Z,53.16
2023-09-09T07:55:58.809Z,51.60
2023-09-09T07:58:28.207Z,52.07
2023-09-09T08:01:07.480Z,51.69
2023-09-09T08:03:37.183Z,51.80
2023-09-09T08:06:07.843Z,51.54
2023-09-09T08:08:37.215Z,50.69
2023-09-09T08:11:07.070Z,51.18
2023-09-09T08:13:37.123Z,49.17
2023-09-09T08:16:06.525Z,48.98
2023-09-09T08:18:36.537Z,49.42
2023-09-09T08:21:05.194Z,48.63
2023-09-09T08:23:34.206Z,49.21
2023-09-09T08:26:03.414Z,47.04
2023-09-09T08:28:33.442Z,46.26
2023-09-09T08:31:04.160Z,47.14
2023-09-09T08:33:33.064Z,47.30
2023-09-09T08:36:04.522Z,47.09
2023-09-09T08:38:33.357Z,44.66
2023-09-09T08:41:08.920Z,44.30
2023-09-09T08:44:02.066Z,44.70
2023-09-09T08:46:30.864Z,43.88
2023-09-09T08:49:00.807Z,43.65
2023-09-09T08:51:33.908Z,44.57
2023-09-09T08:54:03.970Z,44.39
2023-09-09T08:56:34.181Z,45.98
2023-09-09T08:59:04.045Z,43.77
2023-09-09T09:01:34.440Z,44.86
2023-09-09T09:04:04.077Z,42.90
2023-09-09T09:06:35.013Z,42.89
2023-09-09T09:09:04.700Z,44.06
2023-09-09T09:11:33.990Z,45.11
2023-09-09T09:14:09.995Z,43.92
2023-09-09T09:16:41.404Z,43.54
2023-09-09T09:19:29.928Z,41.59
2023-09-09T09:21:59.818Z,40.49
2023-09-09T09:24:29.763Z,40.60
2023-09-09T09:27:00.224Z,42.93
2023-09-09T09:29:42.491Z,43.82
2023-09-09T09:32:12.127Z,40.89
2023-09-09T09:34:41.183Z,41.27
2023-09-09T09:37:14.615Z,40.09
2023-09-09T09:39:44.768Z,39.41
2023-09-09T09:42:14.523Z,41.11
2023-09-09T09:44:43.188Z,39.04
2023-09-09T09:47:12.661Z,39.98
2023-09-09T09:49:43.745Z,41.02
2023-09-09T09:52:24.385Z,38.21
2023-09-09T09:54:54.687Z,38.23
2023-09-09T09:57:25.435Z,38.64
2023-09-09T09:59:54.114Z,38.59
2023-09-09T10:02:22.909Z,40.12
2023-09-09T10:04:54.648Z,39.87
2023-09-09T10:07:26.203Z,40.20
2023-09-09T10:10:01.582Z,37.68
2023-09-09T10:12:54.841Z,37.08
2023-09-09T10:15:24.883Z,39.39
2023-09-09T10:17:55.267Z,39.53
2023-09-09T10:20:26.075Z,38.97
2023-09-09T10:23:01.263Z,38.12
2023-09-09T10:25:41.091Z,38.68
2023-09-09T10:28:12.005Z,39.70
2023-09-09T10:30:40.962Z,38.60
2023-09-09T10:33:12.111Z,35.70
2023-09-09T10:35:44.006Z,36.03
2023-09-09T10:38:15.271Z,35.20
2023-09-09T10:40:48.128Z,36.35
2023-09-09T10:43:17.313Z,35.87
2023-09-09T10:45:46.672Z,36.23
2023-09-09T10:48:21.918Z,36.14
2023-09-09T10:50:54.490Z,35.57
2023-09-09T10:53:30.774Z,36.21
2023-09-09T10:56:13.854Z,34.89
2023-09-09T10:58:45.426Z,36.12
2023-09-09T11:01:27.841Z,34.79
2023-09-09T11:03:58.764Z,35.75
2023-09-09T11:06:30.428Z,35.99
2023-09-09T11:09:01.536Z,34.98
2023-09-09T11:11:36.522Z,33.97
2023-09-09T11:14:07.277Z,33.89
2023-09-09T11:16:43.816Z,33.56
2023-09-09T11:19:15.524Z,33.69
2023-09-09T11:21:49.018Z,33.37
2023-09-09T11:24:18.776Z,33.58
2023-09-09T11:26:50.798Z,33.52
2023-09-09T11:29:35.545Z,34.38
2023-09-09T11:32:29.340Z,32.77
2023-09-09T11:34:58.970Z,32.42
2023-09-09T11:37:30.419Z,33.83
2023-09-09T11:39:59.879Z,33.89
2023-09-09T11:42:29.224Z,33.69
2023-09-09T11:44:57.949Z,32.96
2023-09-09T11:47:27.860Z,33.27
2023-09-09T11:49:56.455Z,33.76
2023-09-09T11:52:25.568Z,31.84
2023-09-09T11:54:54.989Z,31.05
2023-09-09T11:57:24.921Z,31.81
2023-09-09T11:59:55.963Z,32.86
2023-09-09T12:02:27.774Z,31.43
2023-09-09T12:04:58.837Z,31.28
2023-09-09T12:07:32.533Z,31.71
2023-09-09T12:10:01.947Z,32.45
2023-09-09T12:12:33.445Z,33.07
2023-09-09T12:15:04.702Z,31.84
2023-09-09T12:17:35.119Z,31.00
2023-09-09T12:20:06.649Z,31.48
2023-09-09T12:22:38.071Z,30.38
2023-09-09T12:25:08.919Z,30.10
2023-09-09T12:27:45.623Z,30.48
2023-09-09T12:30:38.192Z,30.83
2023-09-09T12:33:14.245Z,29.25
2023-09-09T12:35:51.742Z,29.55
2023-09-09T12:38:22.331Z,29.87
2023-09-09T12:41:05.107Z,29.37
2023-09-09T12:43:38.434Z,29.99
2023-09-09T12:46:10.232Z,29.66
2023-09-09T12:49:05.400Z,28.72
2023-09-09T12:51:36.855Z,29.33
2023-09-09T12:54:06.369Z,28.18
2023-09-09T12:56:35.600Z,28.26
2023-09-09T12:59:05.142Z,29.56
2023-09-09T13:01:34.480Z,29.23
2023-09-09T13:04:03.697Z,29.89
2023-09-09T13:06:32.786Z,29.48
2023-09-09T13:09:02.750Z,28.37
2023-09-09T13:11:32.057Z,28.33
2023-09-09T13:14:07.287Z,28.71
2023-09-09T13:16:52.043Z,28.53
2023-09-09T13:19:21.843Z,28.70
2023-09-09T13:21:50.568Z,27.67
2023-09-09T13:24:19.435Z,27.92
2023-09-09T13:26:48.130Z,29.49
2023-09-09T13:29:18.665Z,29.80
2023-09-09T13:31:47.565Z,28.71
2023-09-09T13:34:16.335Z,27.98
2023-09-09T13:36:45.150Z,28.00
2023-09-09T13:39:14.522Z,27.88
2023-09-09T13:41:43.561Z,28.86
2023-09-09T13:44:12.222Z,27.58
2023-09-09T13:46:42.127Z,28.24
2023-09-09T13:49:11.612Z,26.93
2023-09-09T13:51:40.437Z,26.46
2023-09-09T13:54:09.641Z,27.80
2023-09-09T13:56:38.639Z,28.50
2023-09-09T13:59:07.996Z,27.24
2023-09-09T14:01:36.550Z,26.13
2023-09-09T14:04:05.755Z,27.20
2023-09-09T14:06:34.474Z,27.04
2023-09-09T14:09:03.163Z,26.78
2023-09-09T14:11:31.770Z,27.14
2023-09-09T14:14:01.459Z,26.83
2023-09-09T14:16:31.222Z,27.15
2023-09-09T14:19:00.802Z,25.47
2023-09-09T14:21:30.505Z,26.15
2023-09-09T14:24:00.559Z,25.67
2023-09-09T14:26:29.680Z,26.47
2023-09-09T14:28:58.231Z,25.91
2023-09-09T14:31:27.674Z,25.90
2023-09-09T14:33:56.484Z,25.87
2023-09-09T14:36:25.988Z,25.61
2023-09-09T14:38:54.713Z,25.35
2023-09-09T14:41:23.327Z,25.69
2023-09-09T14:43:51.893Z,26.03
2023-09-09T14:46:24.595Z,26.00
2023-09-09T14:48:57.334Z,26.20
2023-09-09T14:51:31.714Z,25.84
2023-09-09T14:54:02.797Z,25.94
2023-09-09T14:56:32.304Z,25.75
2023-09-09T14:59:01.536Z,25.99
2023-09-09T15:01:30.088Z,26.11
2023-09-09T15:03:58.823Z,25.73
2023-09-09T15:06:27.882Z,24.89
2023-09-09T15:08:57.124Z,24.94
2023-09-09T15:11:27.075Z,25.32
2023-09-09T15:13:55.810Z,25.39
2023-09-09T15:16:24.375Z,26.21
2023-09-09T15:18:53.805Z,27.51
2023-09-09T15:21:22.491Z,28.14
2023-09-09T15:23:51.101Z,28.72
2023-09-09T15:26:19.690Z,28.01
2023-09-09T15:28:49.571Z,27.57
2023-09-09T15:31:18.597Z,27.41
2023-09-09T15:33:47.172Z,27.14
2023-09-09T15:36:15.701Z,26.58
2023-09-09T15:38:44.947Z,27.16
2023-09-09T15:41:13.625Z,27.47
2023-09-09T15:43:49.550Z,26.43
2023-09-09T15:46:18.254Z,27.59
2023-09-09T15:48:47.086Z,27.28
2023-09-09T15:51:15.647Z,27.54
2023-09-09T15:53:44.880Z,27.29
2023-09-09T15:56:14.244Z,26.72
2023-09-09T15:58:43.661Z,26.59
2023-09-09T16:01:12.281Z,26.42
2023-09-09T16:03:40.973Z,27.43
2023-09-09T16:06:10.051Z,27.03
2023-09-09T16:08:40.690Z,27.17
2023-09-09T16:11:10.228Z,27.93
2023-09-09T16:13:38.821Z,28.77
2023-09-09T16:16:09.532Z,29.14
2023-09-09T16:18:42.684Z,29.66
2023-09-09T16:21:12.782Z,30.35
2023-09-09T16:23:41.829Z,29.93
2023-09-09T16:26:10.482Z,30.17
2023-09-09T16:28:40.801Z,30.03
2023-09-09T16:31:09.717Z,30.33
2023-09-09T16:33:38.407Z,30.42
2023-09-09T16:36:08.053Z,30.26
2023-09-09T16:38:37.326Z,31.10
2023-09-09T16:41:06.305Z,31.34
2023-09-09T16:43:39.461Z,31.70
2023-09-09T16:46:08.153Z,32.43
2023-09-09T16:48:37.228Z,33.06
2023-09-09T16:51:06.137Z,33.39
2023-09-09T16:53:34.744Z,33.30
2023-09-09T16:56:03.606Z,34.10
2023-09-09T16:58:32.824Z,35.16
2023-09-09T17:01:01.879Z,36.25
2023-09-09T17:03:31.281Z,37.62
2023-09-09T17:06:01.602Z,39.00
2023-09-09T17:08:30.570Z,39.70
2023-09-09T17:10:59.145Z,40.87
2023-09-09T17:13:28.497Z,41.98
2023-09-09T17:16:00.051Z,43.64
2023-09-09T17:18:29.556Z,44.28
2023-09-09T17:20:59.761Z,45.34
2023-09-09T17:23:29.606Z,45.37
2023-09-09T17:26:01.812Z,46.56
2023-09-09T17:28:30.679Z,47.11
2023-09-09T17:30:59.447Z,48.44
2023-09-09T17:33:28.507Z,48.66
2023-09-09T17:35:58.334Z,48.83
2023-09-09T17:38:27.757Z,50.16
2023-09-09T17:40:58.048Z,50.79
2023-09-09T17:43:26.707Z,51.82
2023-09-09T17:45:55.366Z,53.21
2023-09-09T17:48:25.798Z,54.56
2023-09-09T17:50:54.399Z,55.46
2023-09-09T17:53:22.998Z,56.18
2023-09-09T17:55:52.488Z,57.59
2023-09-09T17:58:21.184Z,58.59
2023-09-09T18:00:50.180Z,58.84
2023-09-09T18:03:19.243Z,60.34
2023-09-09T18:05:49.183Z,59.84
2023-09-09T18:08:18.557Z,58.88
2023-09-09T18:10:48.270Z,60.18
2023-09-09T18:13:18.035Z,59.59
2023-09-09T18:15:46.772Z,59.86
2023-09-09T18:18:15.430Z,59.58
2023-09-09T18:20:44.130Z,59.87
2023-09-09T18:23:13.314Z,61.81
2023-09-09T18:25:41.993Z,62.17
2023-09-09T18:28:11.004Z,61.94
2023-09-09T18:30:42.351Z,62.64
2023-09-09T18:33:13.185Z,62.77
2023-09-09T18:35:44.467Z,62.40
2023-09-09T18:38:13.527Z,63.26
2023-09-09T18:40:42.383Z,63.88
2023-09-09T18:43:11.047Z,63.78
2023-09-09T18:45:39.915Z,63.19
2023-09-09T18:48:09.158Z,63.76
2023-09-09T18:50:38.334Z,64.46
2023-09-09T18:53:07.011Z,64.00
2023-09-09T18:55:36.575Z,64.26
2023-09-09T18:58:05.746Z,65.34
2023-09-09T19:00:35.927Z,65.73
2023-09-09T19:03:05.152Z,64.64
2023-09-09T19:05:34.551Z,66.23
2023-09-09T19:08:03.497Z,67.66
2023-09-09T19:10:32.772Z,68.09
2023-09-09T19:13:02.025Z,68.53
2023-09-09T19:15:30.613Z,68.11
2023-09-09T19:17:59.169Z,68.24
2023-09-09T19:20:27.868Z,68.24
2023-09-09T19:22:56.418Z,69.32
2023-09-09T19:25:25.215Z,68.45
2023-09-09T19:27:53.776Z,68.13
2023-09-09T19:30:22.395Z,68.80
2023-09-09T19:32:51.130Z,67.88
2023-09-09T19:35:20.364Z,68.53
2023-09-09T19:37:50.214Z,67.96
2023-09-09T19:40:20.479Z,67.04
2023-09-09T19:42:49.043Z,66.09
2023-09-09T19:45:18.228Z,65.30
2023-09-09T19:47:46.875Z,66.19
2023-09-09T19:50:15.420Z,67.89
2023-09-09T19:52:44.060Z,67.57
2023-09-09T19:55:13.337Z,67.32
2023-09-09T19:57:42.148Z,68.15
2023-09-09T20:00:11.186Z,69.69
2023-09-09T20:02:40.709Z,71.80
2023-09-09T20:05:11.687Z,74.02
2023-09-09T20:07:40.318Z,74.47
2023-09-09T20:10:13.117Z,74.96
2023-09-09T20:12:42.230Z,73.47
2023-09-09T20:15:11.014Z,72.22
2023-09-09T20:17:39.679Z,74.46
2023-09-09T20:20:15.099Z,78.10
2023-09-09T20:22:44.097Z,80.49
2023-09-09T20:25:15.774Z,82.10
2023-09-09T20:27:50.528Z,83.05
2023-09-09T20:30:22.003Z,82.27
2023-09-09T20:32:51.452Z,82.79
2023-09-09T20:38:05.808Z,80.15
2023-09-09T20:40:34.681Z,78.90
2023-09-09T20:43:47.301Z,76.76
2023-09-09T20:46:16.255Z,79.66
2023-09-09T20:49:21.204Z,80.88
2023-09-09T20:52:58.275Z,78.34
2023-09-09T20:55:58.245Z,78.89
2023-09-09T20:58:44.347Z,81.39
2023-09-09T21:02:19.046Z,82.64
2023-09-09T21:05:28.933Z,83.57
2023-09-09T21:08:39.333Z,84.40
2023-09-09T21:12:07.621Z,84.13
2023-09-09T21:18:44.142Z,78.27
2023-09-09T21:21:53.938Z,77.88
2023-09-09T21:25:29.204Z,81.03
2023-09-09T21:28:47.570Z,81.95
2023-09-09T21:31:58.319Z,81.72
2023-09-09T21:34:46.077Z,80.41
2023-09-09T21:38:27.898Z,78.91
2023-09-09T21:49:31.845Z,81.45
2023-09-09T21:52:47.903Z,81.41
2023-09-09T21:56:22.806Z,85.45
2023-09-09T21:59:11.663Z,85.95
2023-09-09T22:09:53.769Z,85.14
2023-09-09T22:26:32.911Z,79.90
2023-09-09T23:17:53.644Z,88.49
2023-09-09T23:26:54.651Z,85.05
2023-09-09T23:39:28.720Z,79.78
2023-09-09T23:45:17.771Z,81.29
2023-09-09T23:47:47.035Z,82.57
2023-09-09T23:50:30.981Z,82.84
2023-09-09T23:53:15.827Z,83.59
2023-09-09T23:58:59.750Z,84.12
